Time;durP1;ratioP1;P1;durP2;ratioP2;P2;SDS_P1;SDS_P2;PMS_P1;PMS_P2;Temp;Humidity;BMP_temperature;BMP_pressure;BME280_temperature;BME280_humidity;BME280_pressure;Samples;Min_cycle;Max_cycle;Signal;HPM_P1;HPM_P2
2021/07/13 00:00:21;;;;;;;9.35;7.40;;;20.20;99.90;;;;;;4938110;29;20167;-81
2021/07/13 00:02:47;;;;;;;7.57;6.97;;;20.20;99.90;;;;;;4937865;29;20223;-81
2021/07/13 00:05:16;;;;;;;8.20;7.55;;;20.20;99.90;;;;;;4941678;29;20616;-81
2021/07/13 00:07:43;;;;;;;9.35;8.38;;;20.20;99.90;;;;;;4942157;29;20540;-80
2021/07/13 00:10:10;;;;;;;7.32;6.72;;;20.10;99.90;;;;;;4940793;29;20230;-81
2021/07/13 00:12:36;;;;;;;7.85;7.25;;;20.20;99.90;;;;;;4941129;29;20289;-81
2021/07/13 00:15:16;;;;;;;11.57;7.93;;;20.10;99.90;;;;;;4946523;29;20187;-81
2021/07/13 00:17:45;;;;;;;9.05;8.20;;;20.00;99.90;;;;;;4943785;29;20226;-81
2021/07/13 00:20:12;;;;;;;9.98;9.13;;;19.90;99.90;;;;;;4939203;29;20171;-81
2021/07/13 00:22:39;;;;;;;9.60;8.65;;;20.00;99.90;;;;;;4940490;29;20175;-81
2021/07/13 00:25:07;;;;;;;12.20;8.73;;;19.90;99.90;;;;;;4944325;29;20195;-81
2021/07/13 00:27:33;;;;;;;13.73;9.55;;;19.90;99.90;;;;;;4941521;29;20190;-81
2021/07/13 00:29:59;;;;;;;10.88;9.75;;;19.90;99.90;;;;;;4939654;29;20525;-81
2021/07/13 00:32:24;;;;;;;10.93;9.98;;;20.10;99.90;;;;;;4939953;29;20202;-80
2021/07/13 00:34:50;;;;;;;10.20;9.38;;;20.20;99.90;;;;;;4939776;29;20547;-81
2021/07/13 00:37:16;;;;;;;12.10;9.82;;;20.10;99.90;;;;;;4940091;29;20173;-80
2021/07/13 00:39:41;;;;;;;10.32;9.18;;;20.00;99.90;;;;;;4937583;29;20179;-80
2021/07/13 00:42:17;;;;;;;16.52;10.15;;;20.10;99.90;;;;;;4938918;29;20176;-80
2021/07/13 00:44:45;;;;;;;10.20;9.23;;;20.00;99.90;;;;;;4938817;29;20207;-80
2021/07/13 00:47:12;;;;;;;14.05;8.55;;;20.00;99.90;;;;;;4937912;29;20222;-80
2021/07/13 00:49:38;;;;;;;9.75;8.50;;;20.10;99.90;;;;;;4938438;29;20210;-80
2021/07/13 00:52:07;;;;;;;10.23;8.85;;;20.10;99.90;;;;;;4938310;29;20179;-79
2021/07/13 00:54:35;;;;;;;9.50;8.70;;;20.00;99.90;;;;;;4938198;29;20191;-81
2021/07/13 00:57:09;;;;;;;10.50;9.13;;;20.00;99.90;;;;;;4936139;29;20210;-81
2021/07/13 00:59:36;;;;;;;11.10;9.05;;;20.10;99.90;;;;;;4935194;29;20213;-81
2021/07/13 01:02:03;;;;;;;9.55;8.65;;;19.80;99.90;;;;;;4936697;29;20175;-81
2021/07/13 01:04:30;;;;;;;10.45;9.45;;;19.90;99.90;;;;;;4936392;29;20286;-79
2021/07/13 01:07:04;;;;;;;10.75;9.65;;;19.90;99.90;;;;;;4936566;29;20261;-79
2021/07/13 01:10:06;;;;;;;11.15;9.68;;;19.90;99.90;;;;;;4936404;29;20179;-79
2021/07/13 01:12:56;;;;;;;11.77;8.80;;;19.80;99.90;;;;;;4936696;29;20532;-80
2021/07/13 01:15:24;;;;;;;10.95;9.55;;;19.70;99.90;;;;;;4936352;29;20202;-81
2021/07/13 01:17:58;;;;;;;12.57;9.02;;;19.90;99.90;;;;;;4935309;29;20267;-80
2021/07/13 01:20:42;;;;;;;11.10;9.93;;;20.00;99.90;;;;;;4936713;29;20167;-81
2021/07/13 01:23:17;;;;;;;13.32;10.10;;;19.90;99.90;;;;;;4935182;29;20210;-81
2021/07/13 01:25:56;;;;;;;10.52;9.63;;;19.90;99.90;;;;;;4936277;29;20647;-80
2021/07/13 01:28:23;;;;;;;13.07;9.00;;;19.80;99.90;;;;;;4936674;29;20209;-80
2021/07/13 01:30:57;;;;;;;10.52;9.43;;;19.60;99.90;;;;;;4951014;29;20175;-80
2021/07/13 01:33:24;;;;;;;9.65;8.82;;;19.50;99.90;;;;;;4950750;29;20238;-80
2021/07/13 01:36:08;;;;;;;10.15;9.25;;;19.50;99.90;;;;;;4950843;29;20258;-80
2021/07/13 01:38:39;;;;;;;8.40;7.70;;;19.60;99.90;;;;;;4935922;29;20190;-81
2021/07/13 01:41:11;;;;;;;9.35;8.50;;;19.50;99.90;;;;;;4936080;29;20583;-80
2021/07/13 01:43:39;;;;;;;11.18;8.60;;;19.50;99.90;;;;;;4936338;29;20195;-80
2021/07/13 01:46:07;;;;;;;11.20;8.20;;;19.50;99.90;;;;;;4936112;29;20194;-80
2021/07/13 01:48:35;;;;;;;8.75;7.95;;;19.70;99.90;;;;;;4936200;29;20258;-80
2021/07/13 01:51:02;;;;;;;10.60;9.38;;;19.50;99.90;;;;;;4935906;29;20171;-80
2021/07/13 01:53:29;;;;;;;10.07;9.00;;;19.60;99.90;;;;;;4936614;29;20575;-80
2021/07/13 01:55:56;;;;;;;9.82;8.30;;;19.60;99.90;;;;;;4939251;29;20163;-80
2021/07/13 01:58:25;;;;;;;10.35;9.35;;;19.50;99.90;;;;;;4938833;29;20171;-79
2021/07/13 02:01:04;;;;;;;10.55;9.60;;;19.70;99.90;;;;;;4951658;29;20167;-80
2021/07/13 02:03:30;;;;;;;9.52;8.52;;;19.80;99.90;;;;;;4954403;29;20183;-80
2021/07/13 02:05:57;;;;;;;9.40;8.45;;;19.80;99.90;;;;;;4937347;29;20226;-80
2021/07/13 02:08:24;;;;;;;10.15;9.20;;;19.50;99.90;;;;;;4951902;29;20516;-80
2021/07/13 02:10:50;;;;;;;16.35;9.25;;;19.60;99.90;;;;;;4937999;29;20160;-80
2021/07/13 02:13:19;;;;;;;11.00;10.02;;;19.40;99.90;;;;;;4940201;29;20202;-80
2021/07/13 02:15:45;;;;;;;9.98;9.15;;;19.50;99.90;;;;;;4954787;29;20175;-79
2021/07/13 02:18:12;;;;;;;10.07;8.88;;;19.30;99.90;;;;;;4958778;28;20182;-79
2021/07/13 02:20:38;;;;;;;13.07;10.63;;;19.20;99.90;;;;;;4960226;28;20195;-81
2021/07/13 02:23:05;;;;;;;11.30;10.10;;;19.10;99.90;;;;;;4942516;28;20179;-80
2021/07/13 02:25:31;;;;;;;11.30;10.27;;;19.30;99.90;;;;;;4936453;29;20190;-80
2021/07/13 02:28:06;;;;;;;14.60;12.15;;;19.30;99.90;;;;;;4937265;29;20588;-80
2021/07/13 02:30:36;;;;;;;12.93;11.27;;;19.10;99.90;;;;;;4935129;29;20663;-80
2021/07/13 02:33:07;;;;;;;12.50;11.27;;;19.10;99.90;;;;;;4936427;29;20239;-80
2021/07/13 02:35:40;;;;;;;12.38;11.10;;;19.20;99.90;;;;;;4935737;29;20675;-80
2021/07/13 02:38:08;;;;;;;16.30;12.65;;;19.20;99.90;;;;;;4935283;29;20174;-79
2021/07/13 02:40:34;;;;;;;12.20;10.77;;;19.20;99.90;;;;;;4935468;29;20194;-79
2021/07/13 02:43:01;;;;;;;17.73;11.68;;;19.20;99.90;;;;;;4935328;29;20179;-80
2021/07/13 02:45:27;;;;;;;15.18;11.10;;;19.00;99.90;;;;;;4935017;29;20225;-79
2021/07/13 02:47:55;;;;;;;15.07;12.27;;;19.10;99.90;;;;;;4935378;29;20231;-80
2021/07/13 02:50:22;;;;;;;13.63;11.55;;;19.20;99.90;;;;;;4935258;29;20190;-80
2021/07/13 02:52:49;;;;;;;13.77;11.90;;;19.20;99.90;;;;;;4935113;29;20237;-79
2021/07/13 02:55:17;;;;;;;13.65;11.82;;;19.30;99.90;;;;;;4933865;29;20196;-80
2021/07/13 02:57:45;;;;;;;12.75;11.52;;;19.30;99.90;;;;;;4935132;29;20231;-80
2021/07/13 03:00:14;;;;;;;16.90;11.68;;;19.30;99.90;;;;;;4935200;29;20170;-79
2021/07/13 03:02:44;;;;;;;13.63;11.85;;;19.10;99.90;;;;;;4933999;29;20210;-79
2021/07/13 03:05:15;;;;;;;14.07;12.75;;;19.00;99.90;;;;;;4934025;29;20207;-79
2021/07/13 03:07:41;;;;;;;12.23;11.00;;;18.90;99.90;;;;;;4934806;29;20179;-79
2021/07/13 03:10:08;;;;;;;15.25;13.30;;;19.00;99.90;;;;;;4934780;29;20168;-79
2021/07/13 03:12:34;;;;;;;16.73;13.60;;;18.90;99.90;;;;;;4935184;29;20202;-80
2021/07/13 03:15:02;;;;;;;19.27;15.15;;;19.00;99.90;;;;;;4933486;29;20213;-80
2021/07/13 03:17:28;;;;;;;20.58;15.82;;;18.90;99.90;;;;;;4935148;29;20168;-80
2021/07/13 03:19:54;;;;;;;23.52;16.52;;;19.10;99.90;;;;;;4933921;29;20190;-80
2021/07/13 03:22:28;;;;;;;18.50;14.80;;;19.10;99.90;;;;;;4937709;29;20175;-79
2021/07/13 03:24:56;;;;;;;24.63;16.08;;;19.20;99.90;;;;;;4937690;29;20222;-79
2021/07/13 03:27:22;;;;;;;19.58;15.15;;;19.10;99.90;;;;;;4938906;29;20238;-80
2021/07/13 03:29:50;;;;;;;16.80;15.02;;;19.10;99.90;;;;;;4938823;29;20259;-80
2021/07/13 03:32:17;;;;;;;22.30;15.90;;;19.00;99.90;;;;;;4938533;29;20202;-80
2021/07/13 03:34:44;;;;;;;22.35;16.70;;;19.20;99.90;;;;;;4938243;29;20273;-81
2021/07/13 03:37:10;;;;;;;22.40;16.17;;;19.40;99.90;;;;;;4938464;29;20174;-79
2021/07/13 03:39:37;;;;;;;19.27;15.52;;;19.40;99.90;;;;;;4938099;29;20172;-80
2021/07/13 03:42:03;;;;;;;18.90;15.95;;;19.40;99.90;;;;;;4938451;29;20288;-80
2021/07/13 03:44:30;;;;;;;18.35;15.35;;;19.50;99.90;;;;;;4940179;29;20246;-80
2021/07/13 03:46:56;;;;;;;33.08;15.45;;;19.50;99.90;;;;;;4939842;29;20160;-80
2021/07/13 03:49:26;;;;;;;16.13;14.50;;;19.50;99.90;;;;;;4938790;29;20543;-80
2021/07/13 03:51:52;;;;;;;24.38;15.82;;;19.30;99.90;;;;;;4938435;29;20238;-80
2021/07/13 03:54:20;;;;;;;22.83;18.60;;;19.20;99.90;;;;;;4938605;29;20219;-79
2021/07/13 03:56:47;;;;;;;29.95;22.23;;;19.40;99.90;;;;;;4938554;29;20156;-79
2021/07/13 03:59:13;;;;;;;34.22;21.90;;;19.40;99.90;;;;;;4938597;29;20193;-80
2021/07/13 04:01:39;;;;;;;32.63;23.27;;;19.40;99.90;;;;;;4938600;29;20628;-80
2021/07/13 04:04:05;;;;;;;30.33;23.50;;;19.50;99.90;;;;;;4938404;29;20548;-79
2021/07/13 04:06:32;;;;;;;35.28;23.90;;;19.50;99.90;;;;;;4938338;29;20248;-80
2021/07/13 04:08:59;;;;;;;35.08;23.55;;;19.60;99.90;;;;;;4938182;29;20246;-80
2021/07/13 04:11:24;;;;;;;37.05;23.63;;;19.70;99.90;;;;;;4937881;29;20171;-80
2021/07/13 04:13:50;;;;;;;40.08;24.15;;;19.70;99.90;;;;;;4937941;29;20223;-80
2021/07/13 04:16:15;;;;;;;35.83;23.75;;;19.60;99.90;;;;;;4937902;29;20174;-81
2021/07/13 04:18:42;;;;;;;40.95;23.50;;;19.60;99.90;;;;;;4938156;29;20172;-80
2021/07/13 04:21:08;;;;;;;38.45;24.13;;;19.70;99.90;;;;;;4938016;29;20159;-79
2021/07/13 04:23:35;;;;;;;58.05;28.95;;;19.90;99.90;;;;;;4937968;29;20509;-80
2021/07/13 04:26:01;;;;;;;57.63;31.15;;;19.90;99.90;;;;;;4938176;29;20171;-80
2021/07/13 04:28:26;;;;;;;62.22;33.90;;;20.00;99.90;;;;;;4938328;29;20234;-79
2021/07/13 04:30:53;;;;;;;69.13;35.30;;;20.00;99.90;;;;;;4937779;29;20257;-80
2021/07/13 04:33:19;;;;;;;73.43;36.10;;;20.00;99.90;;;;;;4937434;29;20203;-80
2021/07/13 04:35:45;;;;;;;70.40;35.80;;;20.00;99.90;;;;;;4938320;29;20171;-79
2021/07/13 04:38:11;;;;;;;78.22;38.17;;;20.00;99.90;;;;;;4939760;29;20175;-80
2021/07/13 04:40:36;;;;;;;83.55;40.13;;;19.90;99.90;;;;;;4938826;29;20520;-79
2021/07/13 04:43:02;;;;;;;73.30;37.13;;;19.80;99.90;;;;;;4938065;29;20230;-80
2021/07/13 04:45:27;;;;;;;78.03;38.40;;;19.80;99.90;;;;;;4938389;29;20607;-79
2021/07/13 04:47:53;;;;;;;82.63;39.05;;;19.50;99.90;;;;;;4938432;29;20190;-79
2021/07/13 04:50:19;;;;;;;81.85;39.50;;;19.40;99.90;;;;;;4938478;29;20173;-79
2021/07/13 04:52:45;;;;;;;79.38;40.13;;;19.30;99.90;;;;;;4937711;29;20203;-79
2021/07/13 04:55:12;;;;;;;78.85;39.05;;;19.50;99.90;;;;;;4937651;29;20210;-80
2021/07/13 04:57:38;;;;;;;80.72;37.85;;;19.70;99.90;;;;;;4938663;29;20168;-80
2021/07/13 05:00:06;;;;;;;76.18;38.55;;;19.80;99.90;;;;;;4939525;29;20190;-79
2021/07/13 05:02:31;;;;;;;73.75;37.67;;;19.80;99.90;;;;;;4941248;29;20168;-79
2021/07/13 05:04:57;;;;;;;77.70;36.88;;;19.70;99.90;;;;;;4959643;29;20198;-79
2021/07/13 05:07:23;;;;;;;70.60;37.95;;;19.90;99.90;;;;;;4957442;29;20166;-79
2021/07/13 05:09:49;;;;;;;70.63;37.42;;;19.80;99.90;;;;;;4956229;29;20171;-79
2021/07/13 05:12:15;;;;;;;68.30;39.03;;;19.80;99.90;;;;;;4937136;29;20241;-79
2021/07/13 05:14:41;;;;;;;77.03;37.45;;;19.70;99.90;;;;;;4936977;29;20265;-79
2021/07/13 05:17:06;;;;;;;87.80;39.33;;;19.90;99.90;;;;;;4936490;29;20163;-79
2021/07/13 05:19:34;;;;;;;75.40;38.17;;;20.10;99.90;;;;;;4935357;29;20190;-80
2021/07/13 05:22:05;;;;;;;82.38;38.95;;;20.10;99.90;;;;;;4937068;29;20179;-80
2021/07/13 05:24:30;;;;;;;84.80;39.95;;;20.10;99.90;;;;;;4936499;29;20198;-80
2021/07/13 05:26:56;;;;;;;71.72;39.45;;;19.70;99.90;;;;;;4937373;29;20171;-80
2021/07/13 05:29:22;;;;;;;71.38;38.47;;;19.40;99.90;;;;;;4936596;29;20218;-80
2021/07/13 05:31:48;;;;;;;66.07;34.67;;;19.50;99.90;;;;;;4941526;29;20167;-80
2021/07/13 05:34:14;;;;;;;69.18;37.15;;;19.30;99.90;;;;;;4939327;29;20287;-80
2021/07/13 05:36:39;;;;;;;83.90;40.05;;;19.30;99.90;;;;;;4935941;29;20235;-80
2021/07/13 05:39:07;;;;;;;83.22;39.72;;;19.50;99.90;;;;;;4936492;29;20175;-82
2021/07/13 05:41:33;;;;;;;83.10;40.97;;;19.40;99.90;;;;;;4936204;29;20167;-80
2021/07/13 05:43:59;;;;;;;82.97;38.03;;;19.10;99.90;;;;;;4935525;29;20242;-79
2021/07/13 05:46:25;;;;;;;83.80;39.42;;;19.20;99.90;;;;;;4935408;29;20194;-79
2021/07/13 05:48:51;;;;;;;83.05;38.33;;;19.40;99.90;;;;;;4935324;29;20190;-80
2021/07/13 05:51:17;;;;;;;75.15;37.15;;;19.60;99.90;;;;;;4932813;29;20210;-80
2021/07/13 05:53:43;;;;;;;79.63;35.72;;;19.60;99.90;;;;;;4934250;29;20631;-80
2021/07/13 05:56:10;;;;;;;77.43;35.90;;;19.70;99.90;;;;;;4935814;29;20240;-80
2021/07/13 05:58:36;;;;;;;84.78;37.20;;;19.80;99.90;;;;;;4950527;29;20163;-80
2021/07/13 06:01:04;;;;;;;81.18;34.55;;;20.00;99.90;;;;;;4934273;29;20171;-80
2021/07/13 06:03:30;;;;;;;86.18;35.92;;;20.10;99.90;;;;;;4935563;29;20171;-81
2021/07/13 06:05:55;;;;;;;88.03;36.47;;;20.10;99.90;;;;;;4935284;29;20593;-81
2021/07/13 06:08:21;;;;;;;83.68;35.72;;;20.40;99.90;;;;;;4933834;29;20183;-80
2021/07/13 06:10:47;;;;;;;92.88;37.65;;;20.50;99.90;;;;;;4935575;29;20256;-80
2021/07/13 06:13:12;;;;;;;89.53;36.83;;;20.60;99.90;;;;;;4935180;29;20203;-81
2021/07/13 06:15:38;;;;;;;97.68;41.50;;;20.40;99.90;;;;;;4934935;29;20214;-80
2021/07/13 06:18:03;;;;;;;91.40;38.15;;;20.40;99.90;;;;;;4935292;29;20183;-80
2021/07/13 06:20:29;;;;;;;108.03;40.10;;;20.20;99.90;;;;;;4935327;29;20174;-81
2021/07/13 06:22:55;;;;;;;93.57;38.97;;;20.30;99.90;;;;;;4935436;29;20178;-81
2021/07/13 06:25:21;;;;;;;103.70;41.40;;;20.20;99.90;;;;;;4933879;29;20191;-80
2021/07/13 06:27:46;;;;;;;110.60;43.03;;;20.30;99.90;;;;;;4934558;29;20164;-80
2021/07/13 06:30:13;;;;;;;102.15;40.60;;;20.20;99.90;;;;;;4934889;29;20178;-80
2021/07/13 06:32:39;;;;;;;121.53;42.35;;;20.00;99.90;;;;;;4934676;29;20202;-80
2021/07/13 06:35:06;;;;;;;109.25;42.78;;;20.10;99.90;;;;;;4934278;29;20283;-79
2021/07/13 06:37:31;;;;;;;110.05;42.58;;;20.20;99.90;;;;;;4935406;29;20174;-87
2021/07/13 06:39:57;;;;;;;102.20;39.22;;;20.20;99.90;;;;;;4935449;29;20172;-86
2021/07/13 06:42:23;;;;;;;110.45;42.55;;;20.20;99.90;;;;;;4934478;29;20175;-87
2021/07/13 06:44:49;;;;;;;108.32;39.85;;;20.20;99.90;;;;;;4935073;29;20203;-84
2021/07/13 06:47:14;;;;;;;112.88;42.15;;;20.20;99.90;;;;;;4929806;29;20179;-84
2021/07/13 06:49:40;;;;;;;108.03;42.13;;;20.30;99.90;;;;;;4914394;29;20194;-84
2021/07/13 06:52:06;;;;;;;108.70;42.35;;;20.40;99.90;;;;;;4914133;29;20192;-86
2021/07/13 06:54:32;;;;;;;94.25;41.25;;;20.40;99.90;;;;;;4915000;29;20199;-83
2021/07/13 06:56:58;;;;;;;102.90;40.30;;;20.50;99.90;;;;;;4921238;29;20175;-83
2021/07/13 06:59:24;;;;;;;101.05;41.15;;;20.60;99.90;;;;;;4937204;29;20171;-86
2021/07/13 07:01:50;;;;;;;91.20;39.25;;;20.90;99.90;;;;;;4937341;29;20174;-86
2021/07/13 07:04:16;;;;;;;91.18;38.33;;;20.90;99.90;;;;;;4937397;29;20226;-84
2021/07/13 07:06:41;;;;;;;96.63;39.45;;;21.10;99.90;;;;;;4937264;29;20266;-87
2021/07/13 07:09:07;;;;;;;90.85;40.85;;;21.00;99.90;;;;;;4938674;29;20202;-85
2021/07/13 07:11:32;;;;;;;93.80;38.78;;;21.10;99.90;;;;;;4937274;29;20175;-83
2021/07/13 07:13:58;;;;;;;88.93;38.28;;;21.20;99.90;;;;;;4942389;29;20214;-83
2021/07/13 07:16:24;;;;;;;106.25;38.50;;;21.30;99.90;;;;;;4958267;28;20187;-86
2021/07/13 07:18:49;;;;;;;86.07;37.35;;;20.90;99.90;;;;;;4953641;28;20191;-86
2021/07/13 07:21:15;;;;;;;77.80;35.67;;;20.70;99.90;;;;;;4943581;29;20171;-87
2021/07/13 07:23:41;;;;;;;85.38;37.63;;;20.40;99.90;;;;;;4937116;29;20211;-84
2021/07/13 07:26:06;;;;;;;82.82;36.22;;;20.60;99.90;;;;;;4944395;29;20267;-84
2021/07/13 07:28:32;;;;;;;91.05;38.58;;;20.30;99.90;;;;;;4945454;29;20187;-84
2021/07/13 07:30:58;;;;;;;82.22;36.72;;;20.10;99.90;;;;;;4943828;29;20183;-84
2021/07/13 07:33:24;;;;;;;97.95;40.78;;;20.20;99.90;;;;;;4952546;29;20214;-84
2021/07/13 07:35:51;;;;;;;79.93;36.75;;;20.30;99.90;;;;;;4946175;29;20167;-81
2021/07/13 07:38:16;;;;;;;71.18;34.80;;;20.30;99.90;;;;;;4938301;29;20179;-92
2021/07/13 07:40:43;;;;;;;73.43;34.72;;;20.60;99.90;;;;;;4937525;29;20647;-81
2021/07/13 07:43:09;;;;;;;78.22;36.42;;;20.80;99.90;;;;;;4934368;29;20178;-81
2021/07/13 07:45:35;;;;;;;76.20;36.22;;;21.30;99.90;;;;;;4935911;29;20215;-81
2021/07/13 07:48:00;;;;;;;66.95;32.80;;;21.40;99.90;;;;;;4933681;29;20716;-86
2021/07/13 07:50:27;;;;;;;72.30;35.63;;;21.50;99.90;;;;;;4919091;29;20174;-85
2021/07/13 07:52:53;;;;;;;65.72;33.70;;;21.80;99.90;;;;;;4919131;29;20706;-84
2021/07/13 07:55:21;;;;;;;79.95;33.75;;;22.20;99.90;;;;;;4931250;29;20597;-86
2021/07/13 07:57:47;;;;;;;74.10;34.67;;;22.40;99.90;;;;;;4936968;29;20198;-86
2021/07/13 08:00:14;;;;;;;67.28;33.95;;;22.60;99.90;;;;;;4938099;29;20168;-82
2021/07/13 08:02:41;;;;;;;61.25;33.33;;;22.30;99.90;;;;;;4937934;29;20197;-84
2021/07/13 08:05:07;;;;;;;60.90;32.15;;;21.90;99.90;;;;;;4939210;29;20195;-89
2021/07/13 08:07:34;;;;;;;74.75;33.47;;;21.70;99.90;;;;;;4937985;29;20592;-85
2021/07/13 08:09:59;;;;;;;65.30;34.33;;;22.00;99.90;;;;;;4937871;29;20171;-84
2021/07/13 08:12:25;;;;;;;66.50;32.75;;;22.10;99.90;;;;;;4938572;29;20175;-85
2021/07/13 08:14:51;;;;;;;60.03;32.70;;;22.10;99.90;;;;;;4937215;29;20269;-85
2021/07/13 08:17:17;;;;;;;71.07;34.17;;;21.70;99.90;;;;;;4939461;29;20628;-88
2021/07/13 08:19:43;;;;;;;70.28;32.72;;;21.70;99.90;;;;;;4938602;29;20214;-85
2021/07/13 08:22:09;;;;;;;61.67;33.90;;;21.90;99.90;;;;;;4937849;29;20171;-84
2021/07/13 08:24:37;;;;;;;63.60;34.47;;;21.90;99.90;;;;;;4938001;29;20226;-88
2021/07/13 08:27:07;;;;;;;67.78;32.95;;;22.00;99.90;;;;;;4937910;29;20186;-83
2021/07/13 08:29:33;;;;;;;62.90;32.10;;;21.60;99.90;;;;;;4937390;29;20236;-84
2021/07/13 08:31:59;;;;;;;72.68;34.72;;;21.90;99.90;;;;;;4937182;29;20210;-83
2021/07/13 08:34:27;;;;;;;71.47;34.08;;;22.10;99.90;;;;;;4938497;29;20214;-84
2021/07/13 08:36:53;;;;;;;62.97;33.45;;;22.20;99.90;;;;;;4938334;29;20301;-86
2021/07/13 08:39:19;;;;;;;68.55;34.50;;;22.40;99.90;;;;;;4937829;29;20183;-89
2021/07/13 08:41:46;;;;;;;65.97;33.80;;;22.70;99.90;;;;;;4937160;29;20178;-90
2021/07/13 08:44:12;;;;;;;66.70;34.65;;;22.90;99.90;;;;;;4937802;29;20191;-91
2021/07/13 08:46:39;;;;;;;76.75;37.40;;;22.60;99.90;;;;;;4937668;29;20193;-87
2021/07/13 08:49:08;;;;;;;70.13;35.28;;;22.40;99.90;;;;;;4936882;29;20186;-85
2021/07/13 08:51:34;;;;;;;69.53;34.97;;;22.20;99.90;;;;;;4936499;29;20267;-84
2021/07/13 08:54:01;;;;;;;64.03;34.70;;;22.30;99.90;;;;;;4936702;29;20305;-84
2021/07/13 08:56:28;;;;;;;65.85;35.53;;;22.30;99.90;;;;;;4936839;29;20170;-85
2021/07/13 08:58:54;;;;;;;67.32;35.33;;;22.20;99.90;;;;;;4938019;29;20175;-88
2021/07/13 09:01:20;;;;;;;71.90;35.35;;;22.30;99.90;;;;;;4937833;29;20705;-84
2021/07/13 09:04:05;;;;;;;78.75;36.67;;;22.70;99.90;;;;;;4936795;29;20198;-85
2021/07/13 09:07:01;;;;;;;69.25;34.78;;;22.70;99.90;;;;;;4936120;29;21044;-82
2021/07/13 09:09:32;;;;;;;65.63;36.92;;;22.70;99.90;;;;;;4936143;29;20651;-81
2021/07/13 09:12:19;;;;;;;73.15;38.63;;;22.50;99.90;;;;;;4936624;29;20651;-80
2021/07/13 09:14:56;;;;;;;68.38;35.45;;;22.50;99.90;;;;;;4936437;29;20938;-83
2021/07/13 09:17:29;;;;;;;70.00;36.13;;;22.40;99.90;;;;;;4936905;29;20855;-85
2021/07/13 09:20:03;;;;;;;71.53;37.55;;;22.60;99.90;;;;;;4935523;29;20183;-83
2021/07/13 09:22:28;;;;;;;79.35;38.75;;;22.60;99.90;;;;;;4935311;29;20179;-80
2021/07/13 09:24:55;;;;;;;85.55;40.92;;;22.60;99.90;;;;;;4935225;29;20199;-86
2021/07/13 09:27:22;;;;;;;77.45;39.15;;;22.70;99.90;;;;;;4936514;29;20167;-82
2021/07/13 09:29:50;;;;;;;78.63;41.38;;;22.40;99.90;;;;;;4936414;29;20625;-81
2021/07/13 09:32:31;;;;;;;87.50;43.08;;;22.30;99.90;;;;;;4936305;29;20167;-84
2021/07/13 09:35:01;;;;;;;79.18;41.97;;;22.20;99.90;;;;;;4935090;29;20206;-82
2021/07/13 09:37:39;;;;;;;87.85;44.67;;;22.40;99.90;;;;;;4936383;29;20171;-86
2021/07/13 09:40:07;;;;;;;80.28;42.63;;;22.60;99.90;;;;;;4936098;29;20222;-82
2021/07/13 09:42:35;;;;;;;94.50;46.20;;;22.80;99.90;;;;;;4936370;29;20582;-81
2021/07/13 09:45:31;;;;;;;92.38;44.95;;;23.20;99.90;;;;;;4936314;29;20206;-81
2021/07/13 09:48:09;;;;;;;91.65;45.40;;;23.60;99.90;;;;;;4934941;29;20197;-81
2021/07/13 09:50:41;;;;;;;83.32;44.63;;;23.40;99.90;;;;;;4936189;29;20174;-82
2021/07/13 09:53:10;;;;;;;78.82;43.50;;;23.40;99.90;;;;;;4935743;29;20327;-82
2021/07/13 09:55:36;;;;;;;88.72;45.40;;;23.40;99.90;;;;;;4936504;29;20199;-85
2021/07/13 09:58:14;;;;;;;86.55;46.13;;;23.10;99.90;;;;;;4937336;29;20191;-85
2021/07/13 10:00:41;;;;;;;90.32;44.00;;;23.00;99.90;;;;;;4936736;29;20175;-84
2021/07/13 10:03:11;;;;;;;74.18;39.58;;;23.20;99.90;;;;;;4934993;29;20167;-80
2021/07/13 10:05:38;;;;;;;66.00;34.20;;;23.10;99.90;;;;;;4935124;29;20254;-80
2021/07/13 10:08:04;;;;;;;57.40;32.22;;;23.40;99.90;;;;;;4935850;29;20171;-81
2021/07/13 10:10:30;;;;;;;48.90;27.85;;;23.50;99.90;;;;;;4935620;29;20254;-84
2021/07/13 10:12:58;;;;;;;48.03;26.80;;;23.50;99.90;;;;;;4935895;29;20253;-80
2021/07/13 10:15:24;;;;;;;44.20;25.55;;;23.40;99.90;;;;;;4935580;29;20188;-80
2021/07/13 10:17:52;;;;;;;46.00;25.48;;;23.50;99.90;;;;;;4935772;29;20538;-81
2021/07/13 10:20:22;;;;;;;47.60;27.10;;;23.50;99.90;;;;;;4935605;29;20199;-86
2021/07/13 10:22:50;;;;;;;48.60;26.33;;;23.50;99.90;;;;;;4935700;29;20163;-88
2021/07/13 10:25:19;;;;;;;42.35;26.10;;;23.60;99.90;;;;;;4935453;29;20183;-81
2021/07/13 10:27:50;;;;;;;47.42;26.17;;;23.60;99.90;;;;;;4935206;29;20171;-80
2021/07/13 10:30:16;;;;;;;40.20;25.30;;;23.70;99.90;;;;;;4934876;29;20172;-81
2021/07/13 10:32:43;;;;;;;37.72;24.98;;;23.70;99.90;;;;;;4949934;29;20225;-86
2021/07/13 10:35:31;;;;;;;42.15;26.95;;;23.50;99.90;;;;;;4934269;29;20199;-85
2021/07/13 10:38:20;;;;;;;50.33;27.05;;;23.20;99.90;;;;;;4935621;29;20245;-80
2021/07/13 10:40:47;;;;;;;43.58;25.98;;;23.20;99.90;;;;;;4935665;29;20179;-89
2021/07/13 10:43:19;;;;;;;49.45;26.40;;;23.00;99.90;;;;;;4936157;29;20226;-81
2021/07/13 10:45:47;;;;;;;43.10;25.92;;;23.10;99.90;;;;;;4935100;29;20231;-89
2021/07/13 10:48:20;;;;;;;38.75;25.00;;;23.30;99.90;;;;;;4934985;29;20179;-92
2021/07/13 10:50:59;;;;;;;37.88;23.98;;;23.50;99.90;;;;;;4935308;29;20531;-82
2021/07/13 10:53:28;;;;;;;38.13;24.48;;;23.40;99.90;;;;;;4934943;29;20285;-80
2021/07/13 10:56:03;;;;;;;37.97;24.58;;;23.60;99.90;;;;;;4934990;29;20651;-80
2021/07/13 10:58:49;;;;;;;35.28;23.08;;;23.70;99.90;;;;;;4935334;29;20178;-81
2021/07/13 11:01:20;;;;;;;32.67;23.33;;;23.90;99.90;;;;;;4934876;29;20174;-91
2021/07/13 11:03:46;;;;;;;38.67;25.95;;;24.10;99.90;;;;;;4935333;29;20238;-80
2021/07/13 11:06:19;;;;;;;31.88;23.98;;;24.00;99.90;;;;;;4935035;29;20171;-84
2021/07/13 11:08:45;;;;;;;41.78;26.48;;;23.70;99.90;;;;;;4935468;29;20652;-80
2021/07/13 11:11:32;;;;;;;37.03;26.45;;;23.70;99.90;;;;;;4935554;29;20174;-80
2021/07/13 11:14:08;;;;;;;41.50;24.83;;;23.90;99.90;;;;;;4933682;29;20305;-92
2021/07/13 11:16:39;;;;;;;38.28;25.02;;;24.00;99.90;;;;;;4935491;29;20264;-79
2021/07/13 11:19:11;;;;;;;37.47;24.90;;;23.90;99.90;;;;;;4934753;29;20171;-81
2021/07/13 11:21:40;;;;;;;43.08;27.92;;;24.00;99.90;;;;;;4935288;29;20527;-81
2021/07/13 11:24:06;;;;;;;34.55;25.70;;;24.10;99.90;;;;;;4934999;29;20187;-81
2021/07/13 11:26:34;;;;;;;36.10;24.77;;;23.90;99.90;;;;;;4934698;29;20171;-89
2021/07/13 11:29:05;;;;;;;43.85;28.10;;;24.00;99.90;;;;;;4935250;29;20172;-88
2021/07/13 11:31:36;;;;;;;36.67;26.23;;;23.90;99.90;;;;;;4933623;29;20175;-80
2021/07/13 11:34:12;;;;;;;41.17;28.55;;;23.70;99.90;;;;;;4934691;29;20222;-80
2021/07/13 11:36:40;;;;;;;38.55;26.15;;;23.80;99.90;;;;;;4935106;29;20170;-80
2021/07/13 11:39:15;;;;;;;40.38;27.50;;;23.90;99.90;;;;;;4934857;29;20172;-81
2021/07/13 11:41:42;;;;;;;36.50;25.98;;;23.90;99.90;;;;;;4934347;29;20179;-82
2021/07/13 11:44:11;;;;;;;39.70;28.00;;;23.90;99.90;;;;;;4938637;29;20187;-81
2021/07/13 11:46:41;;;;;;;42.58;28.80;;;23.70;99.90;;;;;;4938434;29;20577;-81
2021/07/13 11:49:12;;;;;;;38.47;26.70;;;23.60;99.90;;;;;;4938619;29;20163;-82
2021/07/13 11:51:40;;;;;;;42.63;29.77;;;23.50;99.90;;;;;;4938793;29;20632;-85
2021/07/13 11:54:13;;;;;;;55.72;32.33;;;23.20;99.90;;;;;;4938257;29;20208;-81
2021/07/13 11:56:44;;;;;;;55.97;34.55;;;22.80;99.90;;;;;;4937987;29;20306;-83
2021/07/13 11:59:11;;;;;;;60.30;36.38;;;21.80;99.90;;;;;;4938178;29;20504;-84
2021/07/13 12:01:37;;;;;;;59.47;35.50;;;21.50;99.90;;;;;;4937958;29;20254;-83
2021/07/13 12:04:06;;;;;;;71.50;38.45;;;21.40;99.90;;;;;;4937837;29;20266;-84
2021/07/13 12:06:32;;;;;;;69.60;37.20;;;21.10;99.90;;;;;;4936934;29;20175;-84
2021/07/13 12:09:11;;;;;;;72.78;39.03;;;21.00;99.90;;;;;;4937826;29;20250;-83
2021/07/13 12:11:43;;;;;;;79.57;41.78;;;20.80;99.90;;;;;;4936535;29;20592;-84
2021/07/13 12:14:20;;;;;;;83.63;41.83;;;20.60;99.90;;;;;;4936349;29;20618;-86
2021/07/13 12:16:46;;;;;;;78.93;40.58;;;20.70;99.90;;;;;;4936376;29;20171;-86
2021/07/13 12:19:17;;;;;;;82.65;41.38;;;20.80;99.90;;;;;;4936433;29;20241;-85
2021/07/13 12:22:04;;;;;;;84.82;43.67;;;20.80;99.90;;;;;;4936166;29;20167;-84
2021/07/13 12:24:47;;;;;;;85.80;43.08;;;20.90;99.90;;;;;;4935922;29;20202;-85
2021/07/13 12:27:18;;;;;;;91.85;43.03;;;21.00;99.90;;;;;;4936222;29;20238;-85
2021/07/13 12:29:53;;;;;;;84.55;41.97;;;21.10;99.90;;;;;;4937944;29;20171;-88
2021/07/13 12:32:21;;;;;;;79.80;41.92;;;21.10;99.90;;;;;;4937642;29;20191;-84
2021/07/13 12:34:49;;;;;;;87.38;44.03;;;21.10;99.90;;;;;;4936258;29;20307;-84